Terminal Aerodrome Forecast
Issued by NWS Charleston, WV

Current Version | Previous Version | Text Only | Print | Product List | Glossary Off
Versions: 1 2 3 4 5 6 7 8 9 10 11 12 13 14 15 16 17 18 19 20 21 22 23 24 25 26

000
FTUS41 KRLX 260200 AAA
TAFCRW
TAF AMD
KCRW 260223Z 2602/2624 00000KT P6SM SCT060
     FM261500 21006KT P6SM BKN200
     FM261800 24009G14KT P6SM VCTS BKN045CB
     FM262000 30011G22KT 5SM SHRA BR OVC025
     FM262100 33012G24KT 3SM SHRA BR OVC015=

USA.gov is the U.S. government's official web portal to all federal, state and local government web resources and services.